sensor_id;sensor_type;location;lat;lon;timestamp;P1;durP1;ratioP1;P2;durP2;ratioP2
41946;SDS011;27638;42.184;24.848;2022-07-10T00:01:03;7.13;;;4.97;;
41946;SDS011;27638;42.184;24.848;2022-07-10T00:03:29;8.57;;;5.25;;
41946;SDS011;27638;42.184;24.848;2022-07-10T00:05:54;7.15;;;4.72;;
41946;SDS011;27638;42.184;24.848;2022-07-10T00:08:20;7.95;;;5.03;;
41946;SDS011;27638;42.184;24.848;2022-07-10T00:10:45;6.63;;;4.80;;
41946;SDS011;27638;42.184;24.848;2022-07-10T00:13:11;7.07;;;4.97;;
41946;SDS011;27638;42.184;24.848;2022-07-10T00:15:36;6.47;;;5.30;;
41946;SDS011;27638;42.184;24.848;2022-07-10T00:18:02;7.35;;;6.03;;
41946;SDS011;27638;42.184;24.848;2022-07-10T00:20:27;10.20;;;5.90;;
41946;SDS011;27638;42.184;24.848;2022-07-10T00:22:52;10.40;;;6.47;;
41946;SDS011;27638;42.184;24.848;2022-07-10T00:25:18;8.70;;;6.47;;
41946;SDS011;27638;42.184;24.848;2022-07-10T00:27:43;11.88;;;6.43;;
41946;SDS011;27638;42.184;24.848;2022-07-10T00:30:09;10.55;;;6.93;;
41946;SDS011;27638;42.184;24.848;2022-07-10T00:32:35;7.68;;;6.40;;
41946;SDS011;27638;42.184;24.848;2022-07-10T00:35:02;11.85;;;7.32;;
41946;SDS011;27638;42.184;24.848;2022-07-10T00:37:28;8.98;;;7.55;;
41946;SDS011;27638;42.184;24.848;2022-07-10T00:39:54;11.95;;;7.18;;
41946;SDS011;27638;42.184;24.848;2022-07-10T00:42:19;9.82;;;7.45;;
41946;SDS011;27638;42.184;24.848;2022-07-10T00:44:46;8.75;;;6.07;;
41946;SDS011;27638;42.184;24.848;2022-07-10T00:47:12;9.50;;;5.90;;
41946;SDS011;27638;42.184;24.848;2022-07-10T00:49:39;10.18;;;5.85;;
41946;SDS011;27638;42.184;24.848;2022-07-10T00:52:08;8.55;;;5.47;;
41946;SDS011;27638;42.184;24.848;2022-07-10T00:54:38;7.68;;;5.80;;
41946;SDS011;27638;42.184;24.848;2022-07-10T00:57:06;7.97;;;5.40;;
41946;SDS011;27638;42.184;24.848;2022-07-10T00:59:32;8.52;;;5.97;;
41946;SDS011;27638;42.184;24.848;2022-07-10T01:01:58;6.20;;;5.57;;
41946;SDS011;27638;42.184;24.848;2022-07-10T01:04:23;10.00;;;5.93;;
41946;SDS011;27638;42.184;24.848;2022-07-10T01:06:49;8.45;;;5.45;;
41946;SDS011;27638;42.184;24.848;2022-07-10T01:09:15;7.35;;;5.45;;
41946;SDS011;27638;42.184;24.848;2022-07-10T01:11:41;7.28;;;5.53;;
41946;SDS011;27638;42.184;24.848;2022-07-10T01:14:06;10.30;;;5.88;;
41946;SDS011;27638;42.184;24.848;2022-07-10T01:16:32;7.43;;;4.82;;
41946;SDS011;27638;42.184;24.848;2022-07-10T01:18:57;7.68;;;5.22;;
41946;SDS011;27638;42.184;24.848;2022-07-10T01:21:33;7.97;;;5.60;;
41946;SDS011;27638;42.184;24.848;2022-07-10T01:24:02;6.32;;;5.20;;
41946;SDS011;27638;42.184;24.848;2022-07-10T01:26:31;8.45;;;5.30;;
41946;SDS011;27638;42.184;24.848;2022-07-10T01:28:57;7.57;;;5.53;;
41946;SDS011;27638;42.184;24.848;2022-07-10T01:31:25;10.40;;;5.80;;
41946;SDS011;27638;42.184;24.848;2022-07-10T01:33:52;7.05;;;5.90;;
41946;SDS011;27638;42.184;24.848;2022-07-10T01:36:18;9.02;;;5.93;;
41946;SDS011;27638;42.184;24.848;2022-07-10T01:38:45;7.93;;;6.18;;
41946;SDS011;27638;42.184;24.848;2022-07-10T01:41:11;12.20;;;6.45;;
41946;SDS011;27638;42.184;24.848;2022-07-10T01:43:37;8.25;;;6.80;;
41946;SDS011;27638;42.184;24.848;2022-07-10T01:46:03;7.65;;;6.32;;
41946;SDS011;27638;42.184;24.848;2022-07-10T01:48:29;7.68;;;6.78;;
41946;SDS011;27638;42.184;24.848;2022-07-10T01:50:55;11.85;;;6.63;;
41946;SDS011;27638;42.184;24.848;2022-07-10T01:53:22;11.20;;;7.07;;
41946;SDS011;27638;42.184;24.848;2022-07-10T01:55:47;11.60;;;7.43;;
41946;SDS011;27638;42.184;24.848;2022-07-10T01:58:13;8.95;;;6.88;;
41946;SDS011;27638;42.184;24.848;2022-07-10T02:00:38;8.35;;;6.95;;
41946;SDS011;27638;42.184;24.848;2022-07-10T02:03:03;12.95;;;8.05;;
41946;SDS011;27638;42.184;24.848;2022-07-10T02:05:48;11.32;;;7.63;;
41946;SDS011;27638;42.184;24.848;2022-07-10T02:08:13;9.88;;;7.68;;
41946;SDS011;27638;42.184;24.848;2022-07-10T02:10:38;12.27;;;8.20;;
41946;SDS011;27638;42.184;24.848;2022-07-10T02:13:04;9.32;;;8.10;;
41946;SDS011;27638;42.184;24.848;2022-07-10T02:15:29;10.25;;;7.72;;
41946;SDS011;27638;42.184;24.848;2022-07-10T02:17:55;12.00;;;8.38;;
41946;SDS011;27638;42.184;24.848;2022-07-10T02:20:20;15.45;;;8.57;;
41946;SDS011;27638;42.184;24.848;2022-07-10T02:22:46;9.43;;;7.70;;
41946;SDS011;27638;42.184;24.848;2022-07-10T02:25:11;9.68;;;8.32;;
41946;SDS011;27638;42.184;24.848;2022-07-10T02:27:36;10.10;;;8.65;;
41946;SDS011;27638;42.184;24.848;2022-07-10T02:30:02;8.52;;;7.70;;
41946;SDS011;27638;42.184;24.848;2022-07-10T02:32:28;9.88;;;8.35;;
41946;SDS011;27638;42.184;24.848;2022-07-10T02:34:53;9.43;;;8.43;;
41946;SDS011;27638;42.184;24.848;2022-07-10T02:37:18;12.90;;;9.20;;
41946;SDS011;27638;42.184;24.848;2022-07-10T02:39:44;11.20;;;9.25;;
41946;SDS011;27638;42.184;24.848;2022-07-10T02:42:09;11.30;;;8.13;;
41946;SDS011;27638;42.184;24.848;2022-07-10T02:44:35;12.05;;;9.25;;
41946;SDS011;27638;42.184;24.848;2022-07-10T02:47:00;13.90;;;9.35;;
41946;SDS011;27638;42.184;24.848;2022-07-10T02:49:26;10.45;;;8.00;;
41946;SDS011;27638;42.184;24.848;2022-07-10T02:51:51;13.75;;;8.15;;
41946;SDS011;27638;42.184;24.848;2022-07-10T02:54:17;12.38;;;7.93;;
41946;SDS011;27638;42.184;24.848;2022-07-10T02:56:43;10.52;;;7.47;;
41946;SDS011;27638;42.184;24.848;2022-07-10T02:59:08;9.80;;;7.40;;
41946;SDS011;27638;42.184;24.848;2022-07-10T03:01:34;11.23;;;6.90;;
41946;SDS011;27638;42.184;24.848;2022-07-10T03:03:59;10.45;;;7.30;;
41946;SDS011;27638;42.184;24.848;2022-07-10T03:06:26;9.70;;;7.32;;
41946;SDS011;27638;42.184;24.848;2022-07-10T03:08:52;13.70;;;8.15;;
41946;SDS011;27638;42.184;24.848;2022-07-10T03:11:17;8.95;;;8.00;;
41946;SDS011;27638;42.184;24.848;2022-07-10T03:13:43;10.38;;;8.57;;
41946;SDS011;27638;42.184;24.848;2022-07-10T03:16:08;10.38;;;8.15;;
41946;SDS011;27638;42.184;24.848;2022-07-10T03:18:33;10.02;;;7.55;;
41946;SDS011;27638;42.184;24.848;2022-07-10T03:20:59;10.35;;;7.68;;
41946;SDS011;27638;42.184;24.848;2022-07-10T03:23:24;11.75;;;8.48;;
41946;SDS011;27638;42.184;24.848;2022-07-10T03:25:50;14.40;;;7.50;;
41946;SDS011;27638;42.184;24.848;2022-07-10T03:28:16;9.38;;;8.38;;
41946;SDS011;27638;42.184;24.848;2022-07-10T03:30:41;10.48;;;7.78;;
41946;SDS011;27638;42.184;24.848;2022-07-10T03:33:07;14.88;;;7.93;;
41946;SDS011;27638;42.184;24.848;2022-07-10T03:35:33;10.75;;;7.68;;
41946;SDS011;27638;42.184;24.848;2022-07-10T03:37:58;9.45;;;7.28;;
41946;SDS011;27638;42.184;24.848;2022-07-10T03:40:24;8.70;;;7.28;;
41946;SDS011;27638;42.184;24.848;2022-07-10T03:42:51;10.25;;;7.63;;
41946;SDS011;27638;42.184;24.848;2022-07-10T03:45:16;14.05;;;7.90;;
41946;SDS011;27638;42.184;24.848;2022-07-10T03:47:42;9.50;;;7.57;;
41946;SDS011;27638;42.184;24.848;2022-07-10T03:50:07;10.48;;;7.93;;
41946;SDS011;27638;42.184;24.848;2022-07-10T03:52:34;10.70;;;8.73;;
41946;SDS011;27638;42.184;24.848;2022-07-10T03:55:00;13.00;;;8.98;;
41946;SDS011;27638;42.184;24.848;2022-07-10T03:57:26;10.10;;;8.38;;
41946;SDS011;27638;42.184;24.848;2022-07-10T04:00:10;13.38;;;8.98;;
41946;SDS011;27638;42.184;24.848;2022-07-10T04:02:36;12.80;;;9.25;;
41946;SDS011;27638;42.184;24.848;2022-07-10T04:05:04;11.95;;;8.65;;
41946;SDS011;27638;42.184;24.848;2022-07-10T04:07:33;12.68;;;9.02;;
41946;SDS011;27638;42.184;24.848;2022-07-10T04:10:00;11.63;;;8.70;;
41946;SDS011;27638;42.184;24.848;2022-07-10T04:12:25;11.18;;;9.35;;
41946;SDS011;27638;42.184;24.848;2022-07-10T04:14:51;14.07;;;9.55;;
41946;SDS011;27638;42.184;24.848;2022-07-10T04:17:17;13.15;;;9.45;;
41946;SDS011;27638;42.184;24.848;2022-07-10T04:19:43;12.63;;;9.55;;
41946;SDS011;27638;42.184;24.848;2022-07-10T04:22:08;10.85;;;9.20;;
41946;SDS011;27638;42.184;24.848;2022-07-10T04:24:34;15.35;;;9.45;;
41946;SDS011;27638;42.184;24.848;2022-07-10T04:27:00;12.25;;;9.80;;
41946;SDS011;27638;42.184;24.848;2022-07-10T04:29:25;13.32;;;9.38;;
41946;SDS011;27638;42.184;24.848;2022-07-10T04:31:51;11.82;;;9.80;;
41946;SDS011;27638;42.184;24.848;2022-07-10T04:34:16;14.18;;;10.70;;
41946;SDS011;27638;42.184;24.848;2022-07-10T04:36:42;12.02;;;9.45;;
41946;SDS011;27638;42.184;24.848;2022-07-10T04:39:08;12.23;;;9.73;;
41946;SDS011;27638;42.184;24.848;2022-07-10T04:41:33;13.43;;;9.20;;
41946;SDS011;27638;42.184;24.848;2022-07-10T04:43:59;14.02;;;9.50;;
41946;SDS011;27638;42.184;24.848;2022-07-10T04:46:24;15.57;;;9.00;;
41946;SDS011;27638;42.184;24.848;2022-07-10T04:48:50;13.43;;;9.02;;
41946;SDS011;27638;42.184;24.848;2022-07-10T04:51:16;9.60;;;8.35;;
41946;SDS011;27638;42.184;24.848;2022-07-10T04:53:42;16.20;;;8.10;;
41946;SDS011;27638;42.184;24.848;2022-07-10T04:56:07;15.45;;;8.60;;
41946;SDS011;27638;42.184;24.848;2022-07-10T04:58:33;12.05;;;8.30;;
41946;SDS011;27638;42.184;24.848;2022-07-10T05:00:58;11.63;;;7.88;;
41946;SDS011;27638;42.184;24.848;2022-07-10T05:03:23;10.00;;;7.18;;
41946;SDS011;27638;42.184;24.848;2022-07-10T05:05:49;11.15;;;7.82;;
41946;SDS011;27638;42.184;24.848;2022-07-10T05:08:14;10.27;;;7.57;;
41946;SDS011;27638;42.184;24.848;2022-07-10T05:10:40;9.98;;;7.45;;
41946;SDS011;27638;42.184;24.848;2022-07-10T05:13:05;9.30;;;7.53;;
41946;SDS011;27638;42.184;24.848;2022-07-10T05:15:31;11.95;;;7.47;;
41946;SDS011;27638;42.184;24.848;2022-07-10T05:17:57;11.75;;;7.78;;
41946;SDS011;27638;42.184;24.848;2022-07-10T05:20:22;11.38;;;7.13;;
41946;SDS011;27638;42.184;24.848;2022-07-10T05:22:48;10.20;;;7.35;;
41946;SDS011;27638;42.184;24.848;2022-07-10T05:25:13;10.10;;;7.25;;
41946;SDS011;27638;42.184;24.848;2022-07-10T05:27:39;9.50;;;6.88;;
41946;SDS011;27638;42.184;24.848;2022-07-10T05:30:04;13.02;;;7.55;;
41946;SDS011;27638;42.184;24.848;2022-07-10T05:32:30;10.63;;;7.03;;
41946;SDS011;27638;42.184;24.848;2022-07-10T05:34:59;12.02;;;7.40;;
41946;SDS011;27638;42.184;24.848;2022-07-10T05:37:24;10.75;;;7.32;;
41946;SDS011;27638;42.184;24.848;2022-07-10T05:39:49;12.30;;;7.25;;
41946;SDS011;27638;42.184;24.848;2022-07-10T05:42:15;8.57;;;6.65;;
41946;SDS011;27638;42.184;24.848;2022-07-10T05:44:40;11.88;;;6.65;;
41946;SDS011;27638;42.184;24.848;2022-07-10T05:47:06;10.82;;;6.82;;
41946;SDS011;27638;42.184;24.848;2022-07-10T05:49:32;7.70;;;6.90;;
41946;SDS011;27638;42.184;24.848;2022-07-10T05:51:57;8.30;;;6.80;;
41946;SDS011;27638;42.184;24.848;2022-07-10T05:54:23;8.90;;;6.72;;
41946;SDS011;27638;42.184;24.848;2022-07-10T05:56:48;9.85;;;7.20;;
41946;SDS011;27638;42.184;24.848;2022-07-10T05:59:14;8.32;;;6.95;;
41946;SDS011;27638;42.184;24.848;2022-07-10T06:01:40;10.38;;;7.15;;
41946;SDS011;27638;42.184;24.848;2022-07-10T06:04:05;7.63;;;6.85;;
41946;SDS011;27638;42.184;24.848;2022-07-10T06:06:31;9.13;;;6.72;;
41946;SDS011;27638;42.184;24.848;2022-07-10T06:08:56;9.25;;;6.55;;
41946;SDS011;27638;42.184;24.848;2022-07-10T06:11:24;9.90;;;6.80;;
41946;SDS011;27638;42.184;24.848;2022-07-10T06:13:49;8.50;;;6.60;;
41946;SDS011;27638;42.184;24.848;2022-07-10T06:16:15;9.40;;;6.97;;
41946;SDS011;27638;42.184;24.848;2022-07-10T06:18:40;17.17;;;6.93;;
41946;SDS011;27638;42.184;24.848;2022-07-10T06:21:05;8.57;;;6.20;;
41946;SDS011;27638;42.184;24.848;2022-07-10T06:23:31;9.10;;;6.07;;
41946;SDS011;27638;42.184;24.848;2022-07-10T06:25:56;10.32;;;6.10;;
41946;SDS011;27638;42.184;24.848;2022-07-10T06:28:22;9.25;;;6.30;;
41946;SDS011;27638;42.184;24.848;2022-07-10T06:30:47;8.48;;;6.32;;
41946;SDS011;27638;42.184;24.848;2022-07-10T06:33:13;6.88;;;5.85;;
41946;SDS011;27638;42.184;24.848;2022-07-10T06:35:38;8.18;;;7.03;;
41946;SDS011;27638;42.184;24.848;2022-07-10T06:38:04;6.95;;;6.13;;
41946;SDS011;27638;42.184;24.848;2022-07-10T06:40:37;8.77;;;6.30;;
41946;SDS011;27638;42.184;24.848;2022-07-10T06:43:02;7.60;;;5.95;;
41946;SDS011;27638;42.184;24.848;2022-07-10T06:45:28;11.40;;;5.63;;
41946;SDS011;27638;42.184;24.848;2022-07-10T06:47:54;7.47;;;5.80;;
41946;SDS011;27638;42.184;24.848;2022-07-10T06:50:27;6.93;;;6.22;;
41946;SDS011;27638;42.184;24.848;2022-07-10T06:52:57;7.80;;;5.63;;
41946;SDS011;27638;42.184;24.848;2022-07-10T06:55:24;8.40;;;5.32;;
41946;SDS011;27638;42.184;24.848;2022-07-10T06:57:50;9.27;;;6.00;;
41946;SDS011;27638;42.184;24.848;2022-07-10T07:00:16;9.07;;;5.80;;
41946;SDS011;27638;42.184;24.848;2022-07-10T07:02:42;8.15;;;5.82;;
41946;SDS011;27638;42.184;24.848;2022-07-10T07:05:08;11.32;;;5.65;;
41946;SDS011;27638;42.184;24.848;2022-07-10T07:07:34;8.00;;;5.68;;
41946;SDS011;27638;42.184;24.848;2022-07-10T07:10:00;10.68;;;6.03;;
41946;SDS011;27638;42.184;24.848;2022-07-10T07:12:26;7.63;;;5.65;;
41946;SDS011;27638;42.184;24.848;2022-07-10T07:14:51;15.50;;;6.03;;
41946;SDS011;27638;42.184;24.848;2022-07-10T07:17:17;9.88;;;5.40;;
41946;SDS011;27638;42.184;24.848;2022-07-10T07:19:50;7.38;;;5.90;;
41946;SDS011;27638;42.184;24.848;2022-07-10T07:22:35;9.43;;;5.70;;
41946;SDS011;27638;42.184;24.848;2022-07-10T07:25:20;8.55;;;5.75;;
41946;SDS011;27638;42.184;24.848;2022-07-10T07:27:45;11.45;;;6.03;;
41946;SDS011;27638;42.184;24.848;2022-07-10T07:30:11;6.47;;;5.50;;
41946;SDS011;27638;42.184;24.848;2022-07-10T07:32:42;9.65;;;5.63;;
41946;SDS011;27638;42.184;24.848;2022-07-10T07:35:11;10.07;;;5.47;;
41946;SDS011;27638;42.184;24.848;2022-07-10T07:37:41;8.93;;;5.45;;
41946;SDS011;27638;42.184;24.848;2022-07-10T07:40:09;13.63;;;6.03;;
41946;SDS011;27638;42.184;24.848;2022-07-10T07:42:37;6.03;;;5.43;;
41946;SDS011;27638;42.184;24.848;2022-07-10T07:45:03;7.35;;;5.50;;
41946;SDS011;27638;42.184;24.848;2022-07-10T07:47:30;7.85;;;5.70;;
41946;SDS011;27638;42.184;24.848;2022-07-10T07:49:56;7.10;;;5.03;;
41946;SDS011;27638;42.184;24.848;2022-07-10T07:52:22;7.53;;;5.05;;
41946;SDS011;27638;42.184;24.848;2022-07-10T07:54:48;7.03;;;5.38;;
41946;SDS011;27638;42.184;24.848;2022-07-10T07:57:14;5.85;;;5.20;;
41946;SDS011;27638;42.184;24.848;2022-07-10T07:59:39;6.68;;;5.53;;
41946;SDS011;27638;42.184;24.848;2022-07-10T08:02:05;6.22;;;5.03;;
41946;SDS011;27638;42.184;24.848;2022-07-10T08:04:31;5.60;;;4.88;;
41946;SDS011;27638;42.184;24.848;2022-07-10T08:06:56;9.05;;;5.47;;
41946;SDS011;27638;42.184;24.848;2022-07-10T08:09:22;6.75;;;5.00;;
41946;SDS011;27638;42.184;24.848;2022-07-10T08:11:47;8.55;;;5.13;;
41946;SDS011;27638;42.184;24.848;2022-07-10T08:14:13;5.10;;;4.50;;
41946;SDS011;27638;42.184;24.848;2022-07-10T08:16:39;5.65;;;5.03;;
41946;SDS011;27638;42.184;24.848;2022-07-10T08:19:05;6.30;;;4.93;;
41946;SDS011;27638;42.184;24.848;2022-07-10T08:21:31;7.00;;;4.95;;
41946;SDS011;27638;42.184;24.848;2022-07-10T08:23:57;6.75;;;5.10;;
41946;SDS011;27638;42.184;24.848;2022-07-10T08:26:23;6.93;;;5.07;;
41946;SDS011;27638;42.184;24.848;2022-07-10T08:28:49;5.72;;;4.88;;
41946;SDS011;27638;42.184;24.848;2022-07-10T08:31:14;8.70;;;6.20;;
41946;SDS011;27638;42.184;24.848;2022-07-10T08:33:40;14.60;;;11.07;;
41946;SDS011;27638;42.184;24.848;2022-07-10T08:36:06;10.20;;;6.97;;
41946;SDS011;27638;42.184;24.848;2022-07-10T08:38:31;81.20;;;49.80;;
41946;SDS011;27638;42.184;24.848;2022-07-10T08:40:57;71.18;;;41.22;;
41946;SDS011;27638;42.184;24.848;2022-07-10T08:43:24;14.65;;;10.57;;
41946;SDS011;27638;42.184;24.848;2022-07-10T08:45:50;23.85;;;13.25;;
41946;SDS011;27638;42.184;24.848;2022-07-10T08:48:20;13.52;;;7.43;;
41946;SDS011;27638;42.184;24.848;2022-07-10T08:50:51;8.77;;;6.15;;
41946;SDS011;27638;42.184;24.848;2022-07-10T08:53:26;6.57;;;5.43;;
41946;SDS011;27638;42.184;24.848;2022-07-10T08:55:59;12.65;;;6.43;;
41946;SDS011;27638;42.184;24.848;2022-07-10T08:58:26;6.95;;;5.85;;
41946;SDS011;27638;42.184;24.848;2022-07-10T09:00:52;9.23;;;5.68;;
41946;SDS011;27638;42.184;24.848;2022-07-10T09:03:18;6.13;;;5.53;;
41946;SDS011;27638;42.184;24.848;2022-07-10T09:05:44;7.00;;;5.30;;
41946;SDS011;27638;42.184;24.848;2022-07-10T09:08:24;7.75;;;5.20;;
41946;SDS011;27638;42.184;24.848;2022-07-10T09:10:56;22.05;;;5.57;;
41946;SDS011;27638;42.184;24.848;2022-07-10T09:16:41;13.30;;;5.78;;
41946;SDS011;27638;42.184;24.848;2022-07-10T09:21:43;12.43;;;7.07;;
41946;SDS011;27638;42.184;24.848;2022-07-10T09:24:10;7.53;;;6.40;;
41946;SDS011;27638;42.184;24.848;2022-07-10T09:26:36;7.47;;;6.13;;
41946;SDS011;27638;42.184;24.848;2022-07-10T09:29:12;7.82;;;6.45;;
41946;SDS011;27638;42.184;24.848;2022-07-10T09:37:26;11.48;;;8.05;;
41946;SDS011;27638;42.184;24.848;2022-07-10T09:42:30;9.32;;;8.15;;
41946;SDS011;27638;42.184;24.848;2022-07-10T09:47:43;8.82;;;6.20;;
41946;SDS011;27638;42.184;24.848;2022-07-10T09:50:21;9.77;;;5.95;;
41946;SDS011;27638;42.184;24.848;2022-07-10T09:52:49;10.10;;;5.63;;
41946;SDS011;27638;42.184;24.848;2022-07-10T09:55:16;5.93;;;3.50;;
41946;SDS011;27638;42.184;24.848;2022-07-10T09:57:44;6.38;;;4.45;;
41946;SDS011;27638;42.184;24.848;2022-07-10T10:00:13;6.22;;;5.28;;
41946;SDS011;27638;42.184;24.848;2022-07-10T10:02:39;6.03;;;5.43;;
41946;SDS011;27638;42.184;24.848;2022-07-10T10:05:04;7.45;;;4.70;;
41946;SDS011;27638;42.184;24.848;2022-07-10T10:07:30;5.43;;;4.93;;
41946;SDS011;27638;42.184;24.848;2022-07-10T10:10:00;6.65;;;5.32;;
41946;SDS011;27638;42.184;24.848;2022-07-10T10:12:29;7.55;;;6.68;;
41946;SDS011;27638;42.184;24.848;2022-07-10T10:15:00;15.02;;;6.65;;
41946;SDS011;27638;42.184;24.848;2022-07-10T10:17:26;10.10;;;6.70;;
41946;SDS011;27638;42.184;24.848;2022-07-10T10:19:54;11.65;;;7.97;;
41946;SDS011;27638;42.184;24.848;2022-07-10T10:22:42;12.90;;;7.47;;
41946;SDS011;27638;42.184;24.848;2022-07-10T10:25:09;8.98;;;7.13;;
41946;SDS011;27638;42.184;24.848;2022-07-10T10:27:35;15.30;;;6.93;;
41946;SDS011;27638;42.184;24.848;2022-07-10T10:30:01;9.80;;;6.50;;
41946;SDS011;27638;42.184;24.848;2022-07-10T10:32:27;7.18;;;6.10;;
41946;SDS011;27638;42.184;24.848;2022-07-10T10:35:06;12.70;;;6.40;;
41946;SDS011;27638;42.184;24.848;2022-07-10T10:37:38;7.25;;;5.57;;
41946;SDS011;27638;42.184;24.848;2022-07-10T10:40:10;9.15;;;4.82;;
41946;SDS011;27638;42.184;24.848;2022-07-10T10:42:55;7.70;;;4.82;;
41946;SDS011;27638;42.184;24.848;2022-07-10T10:47:57;7.97;;;4.70;;
41946;SDS011;27638;42.184;24.848;2022-07-10T10:53:04;4.80;;;4.22;;
41946;SDS011;27638;42.184;24.848;2022-07-10T10:55:30;8.95;;;5.07;;
41946;SDS011;27638;42.184;24.848;2022-07-10T10:58:11;6.15;;;4.50;;
41946;SDS011;27638;42.184;24.848;2022-07-10T11:00:39;7.03;;;4.55;;
41946;SDS011;27638;42.184;24.848;2022-07-10T11:05:40;4.95;;;4.25;;
41946;SDS011;27638;42.184;24.848;2022-07-10T11:08:09;5.03;;;4.38;;
41946;SDS011;27638;42.184;24.848;2022-07-10T11:13:05;4.53;;;4.05;;
41946;SDS011;27638;42.184;24.848;2022-07-10T11:18:05;6.57;;;4.60;;
41946;SDS011;27638;42.184;24.848;2022-07-10T11:20:40;5.25;;;4.18;;
41946;SDS011;27638;42.184;24.848;2022-07-10T11:25:52;4.35;;;3.85;;
41946;SDS011;27638;42.184;24.848;2022-07-10T11:28:28;8.25;;;3.78;;
41946;SDS011;27638;42.184;24.848;2022-07-10T11:31:17;6.40;;;3.60;;
41946;SDS011;27638;42.184;24.848;2022-07-10T11:33:44;7.75;;;4.47;;
41946;SDS011;27638;42.184;24.848;2022-07-10T11:36:18;4.80;;;4.13;;
41946;SDS011;27638;42.184;24.848;2022-07-10T11:38:46;3.75;;;3.35;;
41946;SDS011;27638;42.184;24.848;2022-07-10T11:41:21;4.32;;;3.92;;
41946;SDS011;27638;42.184;24.848;2022-07-10T11:43:49;4.72;;;3.50;;
41946;SDS011;27638;42.184;24.848;2022-07-10T11:46:16;4.30;;;3.90;;
41946;SDS011;27638;42.184;24.848;2022-07-10T11:48:42;4.38;;;3.97;;
41946;SDS011;27638;42.184;24.848;2022-07-10T11:51:15;5.60;;;3.80;;
41946;SDS011;27638;42.184;24.848;2022-07-10T11:54:06;5.25;;;3.92;;
41946;SDS011;27638;42.184;24.848;2022-07-10T11:56:35;3.88;;;3.47;;
41946;SDS011;27638;42.184;24.848;2022-07-10T12:01:43;4.65;;;3.92;;
41946;SDS011;27638;42.184;24.848;2022-07-10T12:04:10;4.35;;;3.95;;
41946;SDS011;27638;42.184;24.848;2022-07-10T12:06:38;5.07;;;3.88;;
41946;SDS011;27638;42.184;24.848;2022-07-10T12:09:15;6.20;;;3.80;;
41946;SDS011;27638;42.184;24.848;2022-07-10T12:11:42;7.15;;;3.33;;
41946;SDS011;27638;42.184;24.848;2022-07-10T12:14:09;3.55;;;3.25;;
41946;SDS011;27638;42.184;24.848;2022-07-10T12:16:46;4.10;;;3.30;;
41946;SDS011;27638;42.184;24.848;2022-07-10T12:19:16;4.00;;;3.35;;
41946;SDS011;27638;42.184;24.848;2022-07-10T12:21:43;3.97;;;2.83;;
41946;SDS011;27638;42.184;24.848;2022-07-10T12:24:11;3.55;;;3.25;;
41946;SDS011;27638;42.184;24.848;2022-07-10T12:26:38;3.97;;;3.33;;
41946;SDS011;27638;42.184;24.848;2022-07-10T12:29:06;4.53;;;3.70;;
41946;SDS011;27638;42.184;24.848;2022-07-10T12:31:43;5.20;;;3.15;;
41946;SDS011;27638;42.184;24.848;2022-07-10T12:34:10;3.95;;;3.55;;
41946;SDS011;27638;42.184;24.848;2022-07-10T12:36:43;6.47;;;3.92;;
41946;SDS011;27638;42.184;24.848;2022-07-10T12:39:14;8.63;;;3.50;;
41946;SDS011;27638;42.184;24.848;2022-07-10T12:47:44;5.97;;;4.00;;
41946;SDS011;27638;42.184;24.848;2022-07-10T12:50:11;4.60;;;4.13;;
41946;SDS011;27638;42.184;24.848;2022-07-10T12:52:38;5.13;;;3.97;;
41946;SDS011;27638;42.184;24.848;2022-07-10T13:00:29;5.15;;;3.78;;
41946;SDS011;27638;42.184;24.848;2022-07-10T13:08:07;6.07;;;3.30;;
41946;SDS011;27638;42.184;24.848;2022-07-10T13:10:37;4.30;;;3.90;;
41946;SDS011;27638;42.184;24.848;2022-07-10T13:13:04;3.90;;;3.50;;
41946;SDS011;27638;42.184;24.848;2022-07-10T13:15:30;8.60;;;3.58;;
41946;SDS011;27638;42.184;24.848;2022-07-10T13:17:56;3.85;;;3.40;;
41946;SDS011;27638;42.184;24.848;2022-07-10T13:20:22;5.43;;;3.35;;
41946;SDS011;27638;42.184;24.848;2022-07-10T13:22:48;4.10;;;3.67;;
41946;SDS011;27638;42.184;24.848;2022-07-10T13:25:13;5.28;;;3.50;;
41946;SDS011;27638;42.184;24.848;2022-07-10T13:27:39;10.85;;;3.90;;
41946;SDS011;27638;42.184;24.848;2022-07-10T13:30:04;4.85;;;3.38;;
41946;SDS011;27638;42.184;24.848;2022-07-10T13:32:31;5.97;;;3.50;;
41946;SDS011;27638;42.184;24.848;2022-07-10T13:34:56;3.70;;;3.40;;
41946;SDS011;27638;42.184;24.848;2022-07-10T13:37:22;4.47;;;3.45;;
41946;SDS011;27638;42.184;24.848;2022-07-10T13:39:47;3.58;;;3.28;;
41946;SDS011;27638;42.184;24.848;2022-07-10T13:42:13;5.85;;;4.13;;
41946;SDS011;27638;42.184;24.848;2022-07-10T13:44:38;3.83;;;3.42;;
41946;SDS011;27638;42.184;24.848;2022-07-10T13:47:04;7.07;;;4.65;;
41946;SDS011;27638;42.184;24.848;2022-07-10T13:49:29;7.65;;;4.32;;
41946;SDS011;27638;42.184;24.848;2022-07-10T13:51:55;5.15;;;3.25;;
41946;SDS011;27638;42.184;24.848;2022-07-10T13:54:20;3.47;;;3.17;;
41946;SDS011;27638;42.184;24.848;2022-07-10T13:56:46;4.38;;;3.45;;
41946;SDS011;27638;42.184;24.848;2022-07-10T13:59:11;4.10;;;3.67;;
41946;SDS011;27638;42.184;24.848;2022-07-10T14:01:37;8.60;;;5.55;;
41946;SDS011;27638;42.184;24.848;2022-07-10T14:04:02;5.90;;;4.55;;
41946;SDS011;27638;42.184;24.848;2022-07-10T14:06:28;4.50;;;3.70;;
41946;SDS011;27638;42.184;24.848;2022-07-10T14:08:53;4.68;;;3.40;;
41946;SDS011;27638;42.184;24.848;2022-07-10T14:11:19;5.45;;;3.70;;
41946;SDS011;27638;42.184;24.848;2022-07-10T14:13:45;8.75;;;3.75;;
41946;SDS011;27638;42.184;24.848;2022-07-10T14:16:11;7.15;;;3.90;;
41946;SDS011;27638;42.184;24.848;2022-07-10T14:18:36;5.18;;;3.70;;
41946;SDS011;27638;42.184;24.848;2022-07-10T14:21:06;3.90;;;3.45;;
41946;SDS011;27638;42.184;24.848;2022-07-10T14:23:33;4.30;;;3.90;;
41946;SDS011;27638;42.184;24.848;2022-07-10T14:26:00;5.70;;;4.50;;
41946;SDS011;27638;42.184;24.848;2022-07-10T14:28:26;9.10;;;5.22;;
41946;SDS011;27638;42.184;24.848;2022-07-10T14:30:52;6.57;;;4.20;;
41946;SDS011;27638;42.184;24.848;2022-07-10T14:33:19;4.18;;;3.80;;
41946;SDS011;27638;42.184;24.848;2022-07-10T14:35:45;5.82;;;3.72;;
41946;SDS011;27638;42.184;24.848;2022-07-10T14:38:10;6.75;;;4.05;;
41946;SDS011;27638;42.184;24.848;2022-07-10T14:40:36;4.47;;;4.05;;
41946;SDS011;27638;42.184;24.848;2022-07-10T14:43:01;6.18;;;3.88;;
41946;SDS011;27638;42.184;24.848;2022-07-10T14:45:27;7.00;;;3.88;;
41946;SDS011;27638;42.184;24.848;2022-07-10T14:47:52;5.53;;;3.20;;
41946;SDS011;27638;42.184;24.848;2022-07-10T14:50:19;7.43;;;3.65;;
41946;SDS011;27638;42.184;24.848;2022-07-10T14:52:45;6.90;;;3.60;;
41946;SDS011;27638;42.184;24.848;2022-07-10T14:55:10;8.15;;;3.97;;
41946;SDS011;27638;42.184;24.848;2022-07-10T14:57:36;6.78;;;3.95;;
41946;SDS011;27638;42.184;24.848;2022-07-10T15:00:02;7.18;;;4.97;;
41946;SDS011;27638;42.184;24.848;2022-07-10T15:02:28;6.10;;;5.40;;
41946;SDS011;27638;42.184;24.848;2022-07-10T15:04:54;8.00;;;6.18;;
41946;SDS011;27638;42.184;24.848;2022-07-10T15:07:19;5.53;;;4.28;;
41946;SDS011;27638;42.184;24.848;2022-07-10T15:09:45;7.82;;;4.07;;
41946;SDS011;27638;42.184;24.848;2022-07-10T15:12:10;13.68;;;4.13;;
41946;SDS011;27638;42.184;24.848;2022-07-10T15:14:36;23.85;;;3.85;;
41946;SDS011;27638;42.184;24.848;2022-07-10T15:17:01;9.57;;;4.05;;
41946;SDS011;27638;42.184;24.848;2022-07-10T15:19:27;11.55;;;3.88;;
41946;SDS011;27638;42.184;24.848;2022-07-10T15:21:53;9.93;;;4.28;;